Flugplatz Geilsheim (UL)

Hier findest Du alle Informationen zum Flugplatz Geilsheim (UL).

Informationen für Piloten zum Flugplatz Geilsheim

Hier findest Du alle relevanten Informationen, die Du als Pilot benötigst, um Geilsheim anzufliegen.

Flugplatz: Geilsheim ICAO-Code: UL Flugplatz
Frequenz Turm: 123.425 Mhz GAFOR Gebiet: 56
Frequenz Ground: 123.425 Mhz Mogas: nein
Platzrunde: S 2000 ft Landegebühr: -
Platzhöhe: Sunrise: 07:03 Uhr UTC
Pisten: 09/27 - 375 m x 25 m, GRAS Sunset: 15:51 Uhr UTC

Mitglieder, die in Geilsheim fliegen

Flugwetter am Flugplatz Geilsheim

Die METAR Information stammen aus EDDN (61.03 km entfernt).

METAR Code:
2021/01/16 21:20
EDDN 162120Z 13003KT 9999 SCT030 M04/M08 Q1020 R28/19//95 NOSIG

Flugschulen am Flugplatz Geilsheim

Am Flugplatz Geilsheim gibt es leider keine Flugschule.

Benachbarte Flugplätze und Flugschulen

Es gibt 22 weitere Flugplätze in einem Umkreis von 50 km um den Flugplatz Geilsheim.

Jetzt anmelden

Passwort vergessen

Umfrage Archiv

Seid Ihr aufgrund von Corona im Jahr 2020 mehr oder weniger geflogen als im Jahr zuvor?

weniger
45.9 %
gleich viel
32.4 %
mehr
21.6 %
Stimmen: 37 | Diskussion
Anzeige: Roland Aircraft
Statistik Alle Mitglieder

Aktuell sind 44 Besucher online, davon 1 Mitglied und 43 Gäste.


Mitglieder online:
Makipilot 

Anzeige: VFR Sprechfunk Simulator


Anzeige: Pocket FMS